sensor_id;sensor_type;location;lat;lon;timestamp;pressure;altitude;pressure_sealevel;temperature;humidity
66479;BME280;53294;47.912;13.526;2023-04-19T00:02:10;96541.19;;;10.57;71.31
66479;BME280;53294;47.912;13.526;2023-04-19T00:04:37;96540.63;;;10.60;70.97
66479;BME280;53294;47.912;13.526;2023-04-19T00:07:03;96540.84;;;10.64;70.89
66479;BME280;53294;47.912;13.526;2023-04-19T00:09:30;96535.25;;;10.60;71.01
66479;BME280;53294;47.912;13.526;2023-04-19T00:11:57;96535.53;;;10.59;71.19
66479;BME280;53294;47.912;13.526;2023-04-19T00:14:23;96535.00;;;10.33;72.01
66479;BME280;53294;47.912;13.526;2023-04-19T00:16:50;96527.81;;;10.52;71.45
66479;BME280;53294;47.912;13.526;2023-04-19T00:19:17;96531.03;;;10.54;71.34
66479;BME280;53294;47.912;13.526;2023-04-19T00:21:44;96525.56;;;10.59;71.21
66479;BME280;53294;47.912;13.526;2023-04-19T00:24:10;96531.94;;;10.45;71.59
66479;BME280;53294;47.912;13.526;2023-04-19T00:26:37;96524.38;;;10.47;71.64
66479;BME280;53294;47.912;13.526;2023-04-19T00:29:04;96528.06;;;10.56;71.46
66479;BME280;53294;47.912;13.526;2023-04-19T00:31:30;96517.31;;;10.56;71.14
66479;BME280;53294;47.912;13.526;2023-04-19T00:33:57;96523.13;;;10.39;71.71
66479;BME280;53294;47.912;13.526;2023-04-19T00:36:24;96511.31;;;10.40;71.42
66479;BME280;53294;47.912;13.526;2023-04-19T00:38:52;96514.91;;;10.54;71.05
66479;BME280;53294;47.912;13.526;2023-04-19T00:41:18;96512.72;;;10.56;70.90
66479;BME280;53294;47.912;13.526;2023-04-19T00:43:45;96504.09;;;10.59;70.86
66479;BME280;53294;47.912;13.526;2023-04-19T00:46:13;96503.22;;;10.64;70.77
66479;BME280;53294;47.912;13.526;2023-04-19T00:48:40;96496.84;;;10.60;70.98
66479;BME280;53294;47.912;13.526;2023-04-19T00:51:07;96499.53;;;10.60;71.10
66479;BME280;53294;47.912;13.526;2023-04-19T00:53:36;96496.56;;;10.62;71.20
66479;BME280;53294;47.912;13.526;2023-04-19T00:56:04;96493.00;;;10.66;70.72
66479;BME280;53294;47.912;13.526;2023-04-19T00:58:31;96487.41;;;10.63;71.03
66479;BME280;53294;47.912;13.526;2023-04-19T01:00:58;96483.13;;;10.62;71.08
66479;BME280;53294;47.912;13.526;2023-04-19T01:03:25;96489.16;;;10.53;71.02
66479;BME280;53294;47.912;13.526;2023-04-19T01:05:55;96491.22;;;10.56;71.06
66479;BME280;53294;47.912;13.526;2023-04-19T01:08:22;96482.66;;;10.30;72.06
66479;BME280;53294;47.912;13.526;2023-04-19T01:10:49;96479.19;;;10.05;72.82
66479;BME280;53294;47.912;13.526;2023-04-19T01:13:16;96478.06;;;10.06;72.97
66479;BME280;53294;47.912;13.526;2023-04-19T01:15:42;96476.63;;;10.19;72.32
66479;BME280;53294;47.912;13.526;2023-04-19T01:18:09;96474.53;;;10.11;72.66
66479;BME280;53294;47.912;13.526;2023-04-19T01:20:36;96468.88;;;10.13;72.63
66479;BME280;53294;47.912;13.526;2023-04-19T01:23:03;96467.06;;;10.08;72.74
66479;BME280;53294;47.912;13.526;2023-04-19T01:25:30;96467.75;;;10.19;72.04
66479;BME280;53294;47.912;13.526;2023-04-19T01:27:57;96463.59;;;10.32;71.57
66479;BME280;53294;47.912;13.526;2023-04-19T01:30:23;96460.88;;;10.37;71.37
66479;BME280;53294;47.912;13.526;2023-04-19T01:32:50;96460.00;;;10.41;71.37
66479;BME280;53294;47.912;13.526;2023-04-19T01:35:17;96450.75;;;10.29;71.39
66479;BME280;53294;47.912;13.526;2023-04-19T01:37:44;96456.28;;;10.13;72.01
66479;BME280;53294;47.912;13.526;2023-04-19T01:40:11;96453.38;;;9.80;73.36
66479;BME280;53294;47.912;13.526;2023-04-19T01:42:38;96458.38;;;9.63;74.23
66479;BME280;53294;47.912;13.526;2023-04-19T01:45:05;96453.50;;;9.94;72.80
66479;BME280;53294;47.912;13.526;2023-04-19T01:47:31;96450.91;;;10.13;72.04
66479;BME280;53294;47.912;13.526;2023-04-19T01:49:58;96447.69;;;10.11;72.12
66479;BME280;53294;47.912;13.526;2023-04-19T01:52:25;96441.75;;;10.14;72.11
66479;BME280;53294;47.912;13.526;2023-04-19T01:54:51;96437.31;;;10.04;72.29
66479;BME280;53294;47.912;13.526;2023-04-19T01:57:18;96440.63;;;10.20;71.74
66479;BME280;53294;47.912;13.526;2023-04-19T01:59:45;96440.00;;;10.29;71.47
66479;BME280;53294;47.912;13.526;2023-04-19T02:02:11;96435.72;;;10.28;71.65
66479;BME280;53294;47.912;13.526;2023-04-19T02:04:38;96434.63;;;10.29;71.49
66479;BME280;53294;47.912;13.526;2023-04-19T02:07:05;96445.88;;;10.31;71.70
66479;BME280;53294;47.912;13.526;2023-04-19T02:09:36;96436.50;;;10.28;71.64
66479;BME280;53294;47.912;13.526;2023-04-19T02:12:03;96438.34;;;10.33;71.44
66479;BME280;53294;47.912;13.526;2023-04-19T02:14:30;96425.19;;;10.31;71.59
66479;BME280;53294;47.912;13.526;2023-04-19T02:16:57;96423.78;;;10.39;71.25
66479;BME280;53294;47.912;13.526;2023-04-19T02:19:24;96422.94;;;10.19;71.96
66479;BME280;53294;47.912;13.526;2023-04-19T02:21:50;96416.91;;;10.03;72.56
66479;BME280;53294;47.912;13.526;2023-04-19T02:24:19;96416.59;;;10.10;72.23
66479;BME280;53294;47.912;13.526;2023-04-19T02:26:45;96412.13;;;10.24;71.77
66479;BME280;53294;47.912;13.526;2023-04-19T02:29:12;96416.34;;;10.31;71.55
66479;BME280;53294;47.912;13.526;2023-04-19T02:31:39;96410.13;;;10.35;71.63
66479;BME280;53294;47.912;13.526;2023-04-19T02:34:06;96410.94;;;10.36;71.50
66479;BME280;53294;47.912;13.526;2023-04-19T02:36:32;96403.97;;;10.35;71.50
66479;BME280;53294;47.912;13.526;2023-04-19T02:38:59;96408.19;;;10.41;71.24
66479;BME280;53294;47.912;13.526;2023-04-19T02:41:25;96403.97;;;10.35;71.81
66479;BME280;53294;47.912;13.526;2023-04-19T02:43:52;96402.88;;;10.36;71.76
66479;BME280;53294;47.912;13.526;2023-04-19T02:46:19;96401.22;;;10.40;71.43
66479;BME280;53294;47.912;13.526;2023-04-19T02:48:45;96400.44;;;10.39;71.41
66479;BME280;53294;47.912;13.526;2023-04-19T02:51:15;96403.50;;;10.28;72.01
66479;BME280;53294;47.912;13.526;2023-04-19T02:53:42;96407.25;;;10.27;71.90
66479;BME280;53294;47.912;13.526;2023-04-19T02:56:09;96400.75;;;10.33;71.62
66479;BME280;53294;47.912;13.526;2023-04-19T02:58:36;96403.16;;;10.34;71.67
66479;BME280;53294;47.912;13.526;2023-04-19T03:01:02;96399.63;;;10.39;71.70
66479;BME280;53294;47.912;13.526;2023-04-19T03:03:29;96391.06;;;10.37;71.77
66479;BME280;53294;47.912;13.526;2023-04-19T03:05:56;96391.81;;;10.43;71.47
66479;BME280;53294;47.912;13.526;2023-04-19T03:08:23;96389.50;;;10.31;72.01
66479;BME280;53294;47.912;13.526;2023-04-19T03:10:50;96388.75;;;10.25;72.37
66479;BME280;53294;47.912;13.526;2023-04-19T03:13:16;96381.78;;;10.24;72.38
66479;BME280;53294;47.912;13.526;2023-04-19T03:15:43;96380.41;;;10.27;72.22
66479;BME280;53294;47.912;13.526;2023-04-19T03:18:10;96386.81;;;10.31;71.87
66479;BME280;53294;47.912;13.526;2023-04-19T03:20:36;96382.50;;;10.30;71.74
66479;BME280;53294;47.912;13.526;2023-04-19T03:23:03;96381.44;;;10.31;71.77
66479;BME280;53294;47.912;13.526;2023-04-19T03:25:30;96379.00;;;10.34;72.07
66479;BME280;53294;47.912;13.526;2023-04-19T03:27:57;96375.59;;;10.23;71.85
66479;BME280;53294;47.912;13.526;2023-04-19T03:30:24;96369.63;;;10.32;71.63
66479;BME280;53294;47.912;13.526;2023-04-19T03:32:50;96373.91;;;10.33;71.51
66479;BME280;53294;47.912;13.526;2023-04-19T03:35:17;96374.44;;;10.35;71.52
66479;BME280;53294;47.912;13.526;2023-04-19T03:37:44;96369.09;;;10.30;71.64
66479;BME280;53294;47.912;13.526;2023-04-19T03:40:11;96372.06;;;10.28;71.90
66479;BME280;53294;47.912;13.526;2023-04-19T03:42:38;96371.47;;;10.31;71.64
66479;BME280;53294;47.912;13.526;2023-04-19T03:45:04;96371.28;;;10.28;71.94
66479;BME280;53294;47.912;13.526;2023-04-19T03:47:31;96366.03;;;10.17;72.17
66479;BME280;53294;47.912;13.526;2023-04-19T03:49:58;96366.13;;;10.31;71.62
66479;BME280;53294;47.912;13.526;2023-04-19T03:52:24;96360.44;;;10.38;71.41
66479;BME280;53294;47.912;13.526;2023-04-19T03:54:51;96368.25;;;10.34;71.63
66479;BME280;53294;47.912;13.526;2023-04-19T03:57:18;96365.91;;;10.28;71.87
66479;BME280;53294;47.912;13.526;2023-04-19T03:59:44;96367.63;;;10.18;72.19
66479;BME280;53294;47.912;13.526;2023-04-19T04:02:11;96370.19;;;10.29;71.74
66479;BME280;53294;47.912;13.526;2023-04-19T04:04:38;96365.97;;;10.22;71.91
66479;BME280;53294;47.912;13.526;2023-04-19T04:07:05;96372.31;;;10.07;72.61
66479;BME280;53294;47.912;13.526;2023-04-19T04:09:31;96368.91;;;10.02;72.71
66479;BME280;53294;47.912;13.526;2023-04-19T04:11:58;96365.13;;;10.03;72.57
66479;BME280;53294;47.912;13.526;2023-04-19T04:14:25;96366.78;;;9.99;72.66
66479;BME280;53294;47.912;13.526;2023-04-19T04:16:51;96364.34;;;10.02;72.58
66479;BME280;53294;47.912;13.526;2023-04-19T04:19:18;96372.69;;;10.01;72.51
66479;BME280;53294;47.912;13.526;2023-04-19T04:21:47;96368.16;;;9.72;73.69
66479;BME280;53294;47.912;13.526;2023-04-19T04:24:14;96374.16;;;9.88;72.83
66479;BME280;53294;47.912;13.526;2023-04-19T04:26:43;96367.41;;;9.91;72.84
66479;BME280;53294;47.912;13.526;2023-04-19T04:29:09;96369.06;;;9.86;73.13
66479;BME280;53294;47.912;13.526;2023-04-19T04:31:36;96371.81;;;9.81;73.15
66479;BME280;53294;47.912;13.526;2023-04-19T04:34:03;96366.63;;;9.66;73.95
66479;BME280;53294;47.912;13.526;2023-04-19T04:36:29;96370.13;;;9.66;73.72
66479;BME280;53294;47.912;13.526;2023-04-19T04:38:57;96369.44;;;9.50;74.30
66479;BME280;53294;47.912;13.526;2023-04-19T04:41:24;96364.94;;;9.46;74.38
66479;BME280;53294;47.912;13.526;2023-04-19T04:43:50;96361.41;;;9.21;75.30
66479;BME280;53294;47.912;13.526;2023-04-19T04:46:36;96362.16;;;9.56;73.56
66479;BME280;53294;47.912;13.526;2023-04-19T04:49:03;96361.16;;;9.76;73.09
66479;BME280;53294;47.912;13.526;2023-04-19T04:51:29;96355.09;;;9.89;72.51
66479;BME280;53294;47.912;13.526;2023-04-19T04:53:57;96359.59;;;9.94;72.12
66479;BME280;53294;47.912;13.526;2023-04-19T04:56:23;96356.63;;;9.96;72.18
66479;BME280;53294;47.912;13.526;2023-04-19T04:58:52;96359.31;;;9.96;72.10
66479;BME280;53294;47.912;13.526;2023-04-19T05:01:19;96354.97;;;10.00;72.00
66479;BME280;53294;47.912;13.526;2023-04-19T05:03:46;96361.47;;;9.94;72.34
66479;BME280;53294;47.912;13.526;2023-04-19T05:06:13;96359.38;;;9.91;72.59
66479;BME280;53294;47.912;13.526;2023-04-19T05:08:40;96353.66;;;9.97;72.46
66479;BME280;53294;47.912;13.526;2023-04-19T05:11:07;96351.72;;;10.03;72.19
66479;BME280;53294;47.912;13.526;2023-04-19T05:13:34;96349.50;;;10.10;72.13
66479;BME280;53294;47.912;13.526;2023-04-19T05:16:01;96350.50;;;10.14;71.96
66479;BME280;53294;47.912;13.526;2023-04-19T05:18:27;96348.84;;;10.18;71.91
66479;BME280;53294;47.912;13.526;2023-04-19T05:20:55;96351.75;;;10.22;71.60
66479;BME280;53294;47.912;13.526;2023-04-19T05:23:22;96349.06;;;10.22;71.75
66479;BME280;53294;47.912;13.526;2023-04-19T05:25:49;96341.81;;;10.22;71.56
66479;BME280;53294;47.912;13.526;2023-04-19T05:28:15;96349.06;;;10.22;71.59
66479;BME280;53294;47.912;13.526;2023-04-19T05:30:42;96339.94;;;10.23;71.65
66479;BME280;53294;47.912;13.526;2023-04-19T05:33:09;96345.59;;;10.21;71.83
66479;BME280;53294;47.912;13.526;2023-04-19T05:35:35;96350.22;;;10.16;72.36
66479;BME280;53294;47.912;13.526;2023-04-19T05:38:02;96344.59;;;9.93;73.44
66479;BME280;53294;47.912;13.526;2023-04-19T05:40:29;96352.03;;;9.77;74.09
66479;BME280;53294;47.912;13.526;2023-04-19T05:42:55;96350.41;;;9.76;73.96
66479;BME280;53294;47.912;13.526;2023-04-19T05:45:23;96346.81;;;9.86;73.62
66479;BME280;53294;47.912;13.526;2023-04-19T05:47:49;96340.38;;;9.87;73.55
66479;BME280;53294;47.912;13.526;2023-04-19T05:50:16;96347.66;;;10.05;72.94
66479;BME280;53294;47.912;13.526;2023-04-19T05:52:45;96348.63;;;9.91;73.75
66479;BME280;53294;47.912;13.526;2023-04-19T05:55:12;96341.94;;;9.88;73.61
66479;BME280;53294;47.912;13.526;2023-04-19T05:57:39;96343.84;;;9.87;73.63
66479;BME280;53294;47.912;13.526;2023-04-19T06:00:06;96343.16;;;9.77;73.81
66479;BME280;53294;47.912;13.526;2023-04-19T06:02:35;96338.66;;;9.72;74.24
66479;BME280;53294;47.912;13.526;2023-04-19T06:05:02;96342.06;;;10.02;72.95
66479;BME280;53294;47.912;13.526;2023-04-19T06:07:35;96339.84;;;10.09;72.88
66479;BME280;53294;47.912;13.526;2023-04-19T06:10:12;96331.66;;;10.19;72.62
66479;BME280;53294;47.912;13.526;2023-04-19T06:12:39;96334.25;;;10.24;72.37
66479;BME280;53294;47.912;13.526;2023-04-19T06:15:06;96341.16;;;10.31;72.13
66479;BME280;53294;47.912;13.526;2023-04-19T06:17:33;96332.56;;;10.34;72.21
66479;BME280;53294;47.912;13.526;2023-04-19T06:19:59;96327.19;;;10.34;72.53
66479;BME280;53294;47.912;13.526;2023-04-19T06:22:26;96329.34;;;10.32;72.66
66479;BME280;53294;47.912;13.526;2023-04-19T06:24:53;96336.19;;;10.43;72.56
66479;BME280;53294;47.912;13.526;2023-04-19T06:27:19;96332.44;;;10.44;72.63
66479;BME280;53294;47.912;13.526;2023-04-19T06:29:46;96328.28;;;10.33;73.06
66479;BME280;53294;47.912;13.526;2023-04-19T06:32:16;96323.03;;;10.22;73.67
66479;BME280;53294;47.912;13.526;2023-04-19T06:34:43;96331.28;;;10.07;74.49
66479;BME280;53294;47.912;13.526;2023-04-19T06:37:09;96327.56;;;10.03;74.88
66479;BME280;53294;47.912;13.526;2023-04-19T06:39:36;96329.03;;;9.71;76.32
66479;BME280;53294;47.912;13.526;2023-04-19T06:42:02;96320.59;;;9.59;76.92
66479;BME280;53294;47.912;13.526;2023-04-19T06:44:29;96312.41;;;9.45;77.46
66479;BME280;53294;47.912;13.526;2023-04-19T06:46:56;96311.75;;;9.29;77.86
66479;BME280;53294;47.912;13.526;2023-04-19T06:49:23;96310.19;;;9.23;78.58
66479;BME280;53294;47.912;13.526;2023-04-19T06:51:49;96313.66;;;8.99;80.06
66479;BME280;53294;47.912;13.526;2023-04-19T06:54:16;96317.81;;;8.81;79.79
66479;BME280;53294;47.912;13.526;2023-04-19T06:56:45;96309.47;;;8.88;78.70
66479;BME280;53294;47.912;13.526;2023-04-19T06:59:13;96312.84;;;8.98;78.73
66479;BME280;53294;47.912;13.526;2023-04-19T07:01:40;96305.13;;;9.21;78.86
66479;BME280;53294;47.912;13.526;2023-04-19T07:04:07;96307.94;;;9.35;78.32
66479;BME280;53294;47.912;13.526;2023-04-19T07:06:34;96312.88;;;9.23;78.81
66479;BME280;53294;47.912;13.526;2023-04-19T07:09:02;96304.88;;;9.71;77.37
66479;BME280;53294;47.912;13.526;2023-04-19T07:11:29;96306.56;;;9.86;77.09
66479;BME280;53294;47.912;13.526;2023-04-19T07:13:56;96304.28;;;9.98;76.72
66479;BME280;53294;47.912;13.526;2023-04-19T07:16:23;96313.94;;;9.99;76.92
66479;BME280;53294;47.912;13.526;2023-04-19T07:18:51;96305.81;;;10.04;76.76
66479;BME280;53294;47.912;13.526;2023-04-19T07:21:17;96307.81;;;9.94;77.41
66479;BME280;53294;47.912;13.526;2023-04-19T07:23:44;96296.16;;;10.03;76.93
66479;BME280;53294;47.912;13.526;2023-04-19T07:26:11;96299.06;;;10.07;77.09
66479;BME280;53294;47.912;13.526;2023-04-19T07:28:38;96293.06;;;10.15;76.82
66479;BME280;53294;47.912;13.526;2023-04-19T07:31:05;96290.88;;;10.17;76.81
66479;BME280;53294;47.912;13.526;2023-04-19T07:33:32;96290.91;;;10.36;76.04
66479;BME280;53294;47.912;13.526;2023-04-19T07:35:58;96288.88;;;10.47;75.94
66479;BME280;53294;47.912;13.526;2023-04-19T07:38:25;96283.47;;;10.09;76.86
66479;BME280;53294;47.912;13.526;2023-04-19T07:40:52;96284.97;;;9.77;79.05
66479;BME280;53294;47.912;13.526;2023-04-19T07:43:18;96286.22;;;9.61;79.19
66479;BME280;53294;47.912;13.526;2023-04-19T07:45:45;96282.84;;;9.74;78.94
66479;BME280;53294;47.912;13.526;2023-04-19T07:48:13;96276.50;;;10.08;78.16
66479;BME280;53294;47.912;13.526;2023-04-19T07:50:40;96278.19;;;10.23;77.65
66479;BME280;53294;47.912;13.526;2023-04-19T07:53:06;96279.88;;;10.38;77.54
66479;BME280;53294;47.912;13.526;2023-04-19T07:55:33;96282.56;;;10.57;76.84
66479;BME280;53294;47.912;13.526;2023-04-19T07:58:00;96269.81;;;10.63;76.38
66479;BME280;53294;47.912;13.526;2023-04-19T08:00:27;96272.44;;;10.68;76.27
66479;BME280;53294;47.912;13.526;2023-04-19T08:02:55;96268.75;;;10.64;75.96
66479;BME280;53294;47.912;13.526;2023-04-19T08:05:25;96271.72;;;10.62;76.21
66479;BME280;53294;47.912;13.526;2023-04-19T08:07:53;96277.81;;;10.68;76.06
66479;BME280;53294;47.912;13.526;2023-04-19T08:10:19;96277.13;;;10.76;75.74
66479;BME280;53294;47.912;13.526;2023-04-19T08:12:48;96273.88;;;10.79;74.88
66479;BME280;53294;47.912;13.526;2023-04-19T08:15:32;96275.78;;;10.59;74.94
66479;BME280;53294;47.912;13.526;2023-04-19T08:18:03;96267.03;;;10.35;74.98
66479;BME280;53294;47.912;13.526;2023-04-19T08:20:31;96275.88;;;10.16;75.62
66479;BME280;53294;47.912;13.526;2023-04-19T08:22:59;96272.44;;;10.30;75.85
66479;BME280;53294;47.912;13.526;2023-04-19T08:25:40;96263.84;;;10.52;75.33
66479;BME280;53294;47.912;13.526;2023-04-19T08:28:06;96269.13;;;10.57;74.94
66479;BME280;53294;47.912;13.526;2023-04-19T08:30:33;96261.19;;;10.66;74.67
66479;BME280;53294;47.912;13.526;2023-04-19T08:33:00;96262.28;;;10.65;74.88
66479;BME280;53294;47.912;13.526;2023-04-19T08:35:27;96261.91;;;10.71;74.21
66479;BME280;53294;47.912;13.526;2023-04-19T08:37:54;96254.25;;;10.46;74.56
66479;BME280;53294;47.912;13.526;2023-04-19T08:40:20;96254.03;;;10.42;74.16
66479;BME280;53294;47.912;13.526;2023-04-19T08:42:47;96255.19;;;10.36;74.49
66479;BME280;53294;47.912;13.526;2023-04-19T08:45:15;96256.06;;;10.12;74.77
66479;BME280;53294;47.912;13.526;2023-04-19T08:47:57;96255.78;;;10.33;74.65
66479;BME280;53294;47.912;13.526;2023-04-19T08:50:28;96250.19;;;10.29;74.21
66479;BME280;53294;47.912;13.526;2023-04-19T08:52:58;96255.72;;;10.38;74.50
66479;BME280;53294;47.912;13.526;2023-04-19T08:55:46;96251.09;;;10.57;73.83
66479;BME280;53294;47.912;13.526;2023-04-19T08:58:34;96248.41;;;10.57;74.00
66479;BME280;53294;47.912;13.526;2023-04-19T09:01:04;96246.75;;;10.62;73.78
66479;BME280;53294;47.912;13.526;2023-04-19T09:03:32;96242.66;;;10.64;74.06
66479;BME280;53294;47.912;13.526;2023-04-19T09:06:12;96244.00;;;10.81;73.28
66479;BME280;53294;47.912;13.526;2023-04-19T09:08:40;96235.31;;;10.37;74.62
66479;BME280;53294;47.912;13.526;2023-04-19T09:11:07;96228.00;;;10.56;74.27
66479;BME280;53294;47.912;13.526;2023-04-19T09:13:34;96225.41;;;10.84;73.46
66479;BME280;53294;47.912;13.526;2023-04-19T09:16:04;96217.16;;;10.81;73.32
66479;BME280;53294;47.912;13.526;2023-04-19T09:18:31;96227.91;;;10.29;74.27
66479;BME280;53294;47.912;13.526;2023-04-19T09:21:03;96217.88;;;10.53;74.30
66479;BME280;53294;47.912;13.526;2023-04-19T09:23:30;96219.72;;;10.39;74.50
66479;BME280;53294;47.912;13.526;2023-04-19T09:25:58;96218.34;;;10.22;75.77
66479;BME280;53294;47.912;13.526;2023-04-19T09:28:32;96216.88;;;10.49;74.92
66479;BME280;53294;47.912;13.526;2023-04-19T09:31:10;96209.75;;;10.58;74.40
66479;BME280;53294;47.912;13.526;2023-04-19T09:34:18;96209.53;;;11.02;73.22
66479;BME280;53294;47.912;13.526;2023-04-19T09:36:44;96209.25;;;11.17;72.84
66479;BME280;53294;47.912;13.526;2023-04-19T09:39:12;96200.97;;;11.27;72.68
66479;BME280;53294;47.912;13.526;2023-04-19T09:41:53;96193.16;;;10.37;76.17
66479;BME280;53294;47.912;13.526;2023-04-19T09:44:20;96201.94;;;10.43;76.09
66479;BME280;53294;47.912;13.526;2023-04-19T09:47:24;96197.78;;;10.13;77.84
66479;BME280;53294;47.912;13.526;2023-04-19T09:50:05;96197.34;;;10.24;77.75
66479;BME280;53294;47.912;13.526;2023-04-19T09:52:47;96186.41;;;10.40;76.97
66479;BME280;53294;47.912;13.526;2023-04-19T09:55:14;96188.28;;;10.20;78.35
66479;BME280;53294;47.912;13.526;2023-04-19T09:57:53;96183.63;;;10.45;76.85
66479;BME280;53294;47.912;13.526;2023-04-19T10:00:21;96183.66;;;10.07;77.27
66479;BME280;53294;47.912;13.526;2023-04-19T10:02:51;96179.44;;;10.39;77.25
66479;BME280;53294;47.912;13.526;2023-04-19T10:05:23;96170.25;;;10.73;76.63
66479;BME280;53294;47.912;13.526;2023-04-19T10:07:52;96174.34;;;10.84;76.41
66479;BME280;53294;47.912;13.526;2023-04-19T10:10:26;96173.38;;;10.94;76.25
66479;BME280;53294;47.912;13.526;2023-04-19T10:13:10;96171.78;;;11.07;75.51
66479;BME280;53294;47.912;13.526;2023-04-19T10:15:47;96178.06;;;11.30;74.74
66479;BME280;53294;47.912;13.526;2023-04-19T10:18:24;96187.34;;;11.38;74.41
66479;BME280;53294;47.912;13.526;2023-04-19T10:20:57;96176.16;;;11.17;74.61
66479;BME280;53294;47.912;13.526;2023-04-19T10:23:27;96182.53;;;10.93;75.49
66479;BME280;53294;47.912;13.526;2023-04-19T10:25:56;96178.97;;;10.98;75.02
66479;BME280;53294;47.912;13.526;2023-04-19T10:28:23;96191.69;;;11.06;74.67
66479;BME280;53294;47.912;13.526;2023-04-19T10:30:56;96185.22;;;10.93;73.92
66479;BME280;53294;47.912;13.526;2023-04-19T10:33:24;96181.38;;;10.52;73.93
66479;BME280;53294;47.912;13.526;2023-04-19T10:35:55;96180.44;;;10.43;74.21
66479;BME280;53294;47.912;13.526;2023-04-19T10:38:44;96176.56;;;10.82;73.25
66479;BME280;53294;47.912;13.526;2023-04-19T10:41:15;96171.97;;;10.96;72.00
66479;BME280;53294;47.912;13.526;2023-04-19T10:51:22;96163.63;;;11.12;71.12
66479;BME280;53294;47.912;13.526;2023-04-19T10:56:21;96171.09;;;11.15;71.78
66479;BME280;53294;47.912;13.526;2023-04-19T10:59:13;96157.25;;;10.80;71.35
66479;BME280;53294;47.912;13.526;2023-04-19T11:01:55;96148.66;;;10.64;71.16
66479;BME280;53294;47.912;13.526;2023-04-19T11:07:04;96147.38;;;10.29;71.73
66479;BME280;53294;47.912;13.526;2023-04-19T11:12:09;96146.25;;;10.30;70.85
66479;BME280;53294;47.912;13.526;2023-04-19T11:14:47;96143.34;;;10.45;71.74
66479;BME280;53294;47.912;13.526;2023-04-19T11:17:24;96147.00;;;10.82;70.74
66479;BME280;53294;47.912;13.526;2023-04-19T11:22:35;96138.00;;;10.26;72.79
66479;BME280;53294;47.912;13.526;2023-04-19T11:27:48;96131.63;;;9.51;75.58
66479;BME280;53294;47.912;13.526;2023-04-19T11:30:18;96129.66;;;9.95;73.79
66479;BME280;53294;47.912;13.526;2023-04-19T11:32:48;96130.84;;;10.21;73.27
66479;BME280;53294;47.912;13.526;2023-04-19T11:35:21;96120.78;;;10.46;72.42
66479;BME280;53294;47.912;13.526;2023-04-19T11:37:48;96125.53;;;10.35;73.13
66479;BME280;53294;47.912;13.526;2023-04-19T11:40:16;96121.59;;;10.28;73.52
66479;BME280;53294;47.912;13.526;2023-04-19T11:42:43;96123.69;;;10.31;73.36
66479;BME280;53294;47.912;13.526;2023-04-19T11:45:11;96117.31;;;10.46;73.03
66479;BME280;53294;47.912;13.526;2023-04-19T11:47:54;96122.59;;;10.51;72.09
66479;BME280;53294;47.912;13.526;2023-04-19T11:55:37;96132.06;;;10.76;71.86
66479;BME280;53294;47.912;13.526;2023-04-19T11:58:07;96131.66;;;10.69;72.48
66479;BME280;53294;47.912;13.526;2023-04-19T12:00:36;96113.34;;;10.71;72.27
66479;BME280;53294;47.912;13.526;2023-04-19T12:03:03;96125.97;;;10.56;72.84
66479;BME280;53294;47.912;13.526;2023-04-19T12:05:31;96114.31;;;10.14;74.02
66479;BME280;53294;47.912;13.526;2023-04-19T12:08:01;96117.75;;;10.01;74.54
66479;BME280;53294;47.912;13.526;2023-04-19T12:10:30;96115.06;;;10.01;74.54
66479;BME280;53294;47.912;13.526;2023-04-19T12:12:57;96118.97;;;9.89;75.01
66479;BME280;53294;47.912;13.526;2023-04-19T12:15:42;96118.19;;;9.89;75.42
66479;BME280;53294;47.912;13.526;2023-04-19T12:18:09;96125.38;;;9.75;75.88
66479;BME280;53294;47.912;13.526;2023-04-19T12:20:42;96121.38;;;9.72;75.81
66479;BME280;53294;47.912;13.526;2023-04-19T12:23:08;96132.03;;;9.39;75.81
66479;BME280;53294;47.912;13.526;2023-04-19T12:25:39;96129.50;;;8.86;76.67
66479;BME280;53294;47.912;13.526;2023-04-19T12:28:06;96132.31;;;8.70;77.47
66479;BME280;53294;47.912;13.526;2023-04-19T12:30:37;96120.78;;;8.46;77.65
66479;BME280;53294;47.912;13.526;2023-04-19T12:33:05;96132.50;;;8.50;77.56
66479;BME280;53294;47.912;13.526;2023-04-19T12:35:32;96135.72;;;8.52;77.47
66479;BME280;53294;47.912;13.526;2023-04-19T12:38:00;96127.44;;;8.48;77.61
66479;BME280;53294;47.912;13.526;2023-04-19T12:40:28;96135.38;;;8.58;77.31
66479;BME280;53294;47.912;13.526;2023-04-19T12:42:56;96133.72;;;8.33;77.84
66479;BME280;53294;47.912;13.526;2023-04-19T12:45:22;96132.16;;;8.27;77.89
66479;BME280;53294;47.912;13.526;2023-04-19T12:47:49;96137.69;;;8.36;76.78
66479;BME280;53294;47.912;13.526;2023-04-19T12:50:16;96143.22;;;8.50;76.61
66479;BME280;53294;47.912;13.526;2023-04-19T12:52:44;96141.81;;;8.57;76.62
66479;BME280;53294;47.912;13.526;2023-04-19T12:55:11;96135.16;;;8.55;75.95
66479;BME280;53294;47.912;13.526;2023-04-19T12:57:38;96138.28;;;8.62;75.92
66479;BME280;53294;47.912;13.526;2023-04-19T13:00:05;96151.44;;;8.58;75.36
66479;BME280;53294;47.912;13.526;2023-04-19T13:02:33;96148.41;;;8.70;75.04
66479;BME280;53294;47.912;13.526;2023-04-19T13:05:00;96150.66;;;8.58;75.49
66479;BME280;53294;47.912;13.526;2023-04-19T13:07:27;96154.19;;;8.53;76.01
66479;BME280;53294;47.912;13.526;2023-04-19T13:09:54;96155.63;;;8.35;76.41
66479;BME280;53294;47.912;13.526;2023-04-19T13:12:22;96149.97;;;8.47;75.98
66479;BME280;53294;47.912;13.526;2023-04-19T13:14:49;96156.94;;;8.72;75.72
66479;BME280;53294;47.912;13.526;2023-04-19T13:17:18;96155.63;;;8.94;74.25
66479;BME280;53294;47.912;13.526;2023-04-19T13:19:45;96150.28;;;8.94;74.76
66479;BME280;53294;47.912;13.526;2023-04-19T13:22:13;96157.50;;;8.69;74.66
66479;BME280;53294;47.912;13.526;2023-04-19T13:24:40;96147.81;;;8.73;74.71
66479;BME280;53294;47.912;13.526;2023-04-19T13:27:07;96148.16;;;8.91;74.40